sensor_id;sensor_type;location;lat;lon;timestamp;pressure;altitude;pressure_sealevel;temperature;humidity
27980;BME280;15315;50.836;4.430;2023-01-31T00:04:56;102110.38;;;9.36;95.45
27980;BME280;15315;50.836;4.430;2023-01-31T00:14:56;102120.44;;;9.31;94.85
27980;BME280;15315;50.836;4.430;2023-01-31T00:24:56;102110.50;;;9.11;96.74
27980;BME280;15315;50.836;4.430;2023-01-31T00:34:57;102109.06;;;9.03;96.15
27980;BME280;15315;50.836;4.430;2023-01-31T00:44:57;102120.44;;;8.88;98.03
27980;BME280;15315;50.836;4.430;2023-01-31T00:54:58;102107.75;;;8.91;96.90
27980;BME280;15315;50.836;4.430;2023-01-31T01:04:58;102112.22;;;8.47;98.72
27980;BME280;15315;50.836;4.430;2023-01-31T01:15:02;102087.03;;;8.93;94.16
27980;BME280;15315;50.836;4.430;2023-01-31T01:46:58;102084.22;;;8.53;94.66
27980;BME280;15315;50.836;4.430;2023-01-31T01:57:01;102095.66;;;8.36;96.41
27980;BME280;15315;50.836;4.430;2023-01-31T02:07:02;102074.16;;;8.36;95.34
27980;BME280;15315;50.836;4.430;2023-01-31T02:17:03;102071.25;;;8.64;92.51
27980;BME280;15315;50.836;4.430;2023-01-31T02:27:27;102083.44;;;8.28;95.48
27980;BME280;15315;50.836;4.430;2023-01-31T02:37:45;102068.59;;;8.41;94.18
27980;BME280;15315;50.836;4.430;2023-01-31T02:48:02;102058.06;;;7.90;98.29
27980;BME280;15315;50.836;4.430;2023-01-31T02:58:10;102059.91;;;8.11;95.76
27980;BME280;15315;50.836;4.430;2023-01-31T03:08:11;102062.88;;;8.27;94.57
27980;BME280;15315;50.836;4.430;2023-01-31T03:18:21;102055.50;;;8.10;95.00
27980;BME280;15315;50.836;4.430;2023-01-31T03:28:31;102047.25;;;7.91;95.64
27980;BME280;15315;50.836;4.430;2023-01-31T03:38:42;102037.91;;;7.78;97.81
27980;BME280;15315;50.836;4.430;2023-01-31T03:48:47;102027.94;;;7.82;96.92
27980;BME280;15315;50.836;4.430;2023-01-31T03:58:57;102021.59;;;7.84;96.91
27980;BME280;15315;50.836;4.430;2023-01-31T04:08:59;102020.00;;;8.02;95.27
27980;BME280;15315;50.836;4.430;2023-01-31T04:18:59;102037.38;;;8.15;93.98
27980;BME280;15315;50.836;4.430;2023-01-31T04:29:00;102059.06;;;7.38;100.00
27980;BME280;15315;50.836;4.430;2023-01-31T04:39:00;102052.91;;;7.84;98.67
27980;BME280;15315;50.836;4.430;2023-01-31T04:49:01;102039.09;;;7.47;100.00
27980;BME280;15315;50.836;4.430;2023-01-31T04:59:01;102042.09;;;7.37;100.00
27980;BME280;15315;50.836;4.430;2023-01-31T05:09:02;101997.34;;;7.86;100.00
27980;BME280;15315;50.836;4.430;2023-01-31T05:19:02;101988.91;;;7.49;100.00
27980;BME280;15315;50.836;4.430;2023-01-31T05:29:03;102000.16;;;7.35;100.00
27980;BME280;15315;50.836;4.430;2023-01-31T05:39:06;101989.56;;;7.80;100.00
27980;BME280;15315;50.836;4.430;2023-01-31T05:49:08;101975.63;;;7.46;100.00
27980;BME280;15315;50.836;4.430;2023-01-31T05:59:08;101955.06;;;7.69;100.00
27980;BME280;15315;50.836;4.430;2023-01-31T06:09:09;101962.31;;;7.66;100.00
27980;BME280;15315;50.836;4.430;2023-01-31T06:19:10;101956.13;;;7.64;100.00
27980;BME280;15315;50.836;4.430;2023-01-31T06:29:11;101966.66;;;7.47;100.00
27980;BME280;15315;50.836;4.430;2023-01-31T06:39:12;101953.69;;;7.81;100.00
27980;BME280;15315;50.836;4.430;2023-01-31T06:49:13;101961.66;;;8.27;100.00
27980;BME280;15315;50.836;4.430;2023-01-31T06:59:13;101935.84;;;7.80;100.00
27980;BME280;15315;50.836;4.430;2023-01-31T07:09:14;101954.72;;;8.43;100.00
27980;BME280;15315;50.836;4.430;2023-01-31T07:19:14;101959.16;;;8.01;100.00
27980;BME280;15315;50.836;4.430;2023-01-31T07:29:15;101940.19;;;8.27;100.00
27980;BME280;15315;50.836;4.430;2023-01-31T07:39:15;101971.06;;;8.39;100.00
27980;BME280;15315;50.836;4.430;2023-01-31T07:49:16;101976.38;;;8.82;100.00
27980;BME280;15315;50.836;4.430;2023-01-31T07:59:16;101960.53;;;8.54;100.00
27980;BME280;15315;50.836;4.430;2023-01-31T08:09:17;101957.66;;;8.59;100.00
27980;BME280;15315;50.836;4.430;2023-01-31T08:19:18;101954.38;;;8.31;100.00
27980;BME280;15315;50.836;4.430;2023-01-31T08:29:18;101941.00;;;8.71;100.00
27980;BME280;15315;50.836;4.430;2023-01-31T08:39:19;101915.22;;;9.06;100.00
27980;BME280;15315;50.836;4.430;2023-01-31T08:49:19;101916.75;;;8.93;100.00
27980;BME280;15315;50.836;4.430;2023-01-31T08:59:20;101924.63;;;8.35;100.00
27980;BME280;15315;50.836;4.430;2023-01-31T09:09:20;101912.84;;;9.00;100.00
27980;BME280;15315;50.836;4.430;2023-01-31T09:19:20;101889.91;;;9.11;100.00
27980;BME280;15315;50.836;4.430;2023-01-31T09:29:22;101895.56;;;9.63;100.00
27980;BME280;15315;50.836;4.430;2023-01-31T09:39:23;101888.72;;;9.56;100.00
27980;BME280;15315;50.836;4.430;2023-01-31T09:49:29;101892.06;;;10.34;100.00
27980;BME280;15315;50.836;4.430;2023-01-31T10:09:48;101881.81;;;9.50;100.00
27980;BME280;15315;50.836;4.430;2023-01-31T10:19:56;101879.09;;;9.32;100.00
27980;BME280;15315;50.836;4.430;2023-01-31T10:29:59;101842.03;;;9.38;100.00
27980;BME280;15315;50.836;4.430;2023-01-31T10:40:13;101838.28;;;9.78;100.00
27980;BME280;15315;50.836;4.430;2023-01-31T11:00:29;101819.06;;;11.37;100.00
27980;BME280;15315;50.836;4.430;2023-01-31T11:10:31;101803.06;;;11.01;100.00
27980;BME280;15315;50.836;4.430;2023-01-31T11:20:36;101807.19;;;10.75;100.00
27980;BME280;15315;50.836;4.430;2023-01-31T11:30:46;101814.25;;;9.92;100.00
27980;BME280;15315;50.836;4.430;2023-01-31T11:40:48;101792.59;;;11.28;100.00
27980;BME280;15315;50.836;4.430;2023-01-31T11:51:00;101777.13;;;11.92;100.00
27980;BME280;15315;50.836;4.430;2023-01-31T12:01:23;101777.59;;;11.06;100.00
27980;BME280;15315;50.836;4.430;2023-01-31T12:11:33;101760.13;;;11.60;100.00
27980;BME280;15315;50.836;4.430;2023-01-31T12:52:07;101750.53;;;11.55;100.00
27980;BME280;15315;50.836;4.430;2023-01-31T13:12:32;101749.00;;;11.02;100.00
27980;BME280;15315;50.836;4.430;2023-01-31T13:22:51;101748.16;;;11.33;100.00
27980;BME280;15315;50.836;4.430;2023-01-31T13:32:54;101772.00;;;10.61;100.00
27980;BME280;15315;50.836;4.430;2023-01-31T13:42:59;101761.50;;;10.72;100.00
27980;BME280;15315;50.836;4.430;2023-01-31T13:53:04;101761.84;;;10.66;100.00
27980;BME280;15315;50.836;4.430;2023-01-31T14:03:12;101755.78;;;10.45;100.00
27980;BME280;15315;50.836;4.430;2023-01-31T14:23:45;101737.44;;;11.00;100.00
27980;BME280;15315;50.836;4.430;2023-01-31T14:33:46;101717.56;;;10.37;100.00
27980;BME280;15315;50.836;4.430;2023-01-31T14:44:19;101720.91;;;11.06;100.00
27980;BME280;15315;50.836;4.430;2023-01-31T15:04:44;101778.72;;;11.34;100.00
27980;BME280;15315;50.836;4.430;2023-01-31T15:14:53;101792.66;;;11.42;100.00
27980;BME280;15315;50.836;4.430;2023-01-31T15:24:55;101792.25;;;11.49;100.00
27980;BME280;15315;50.836;4.430;2023-01-31T15:35:22;101789.13;;;12.02;100.00
27980;BME280;15315;50.836;4.430;2023-01-31T15:45:26;101783.69;;;12.18;100.00
27980;BME280;15315;50.836;4.430;2023-01-31T15:55:26;101793.72;;;12.16;100.00
27980;BME280;15315;50.836;4.430;2023-01-31T16:05:32;101792.19;;;12.12;100.00
27980;BME280;15315;50.836;4.430;2023-01-31T16:15:33;101807.50;;;12.27;100.00
27980;BME280;15315;50.836;4.430;2023-01-31T16:25:35;101818.94;;;11.71;100.00
27980;BME280;15315;50.836;4.430;2023-01-31T16:35:36;101802.88;;;11.84;100.00
27980;BME280;15315;50.836;4.430;2023-01-31T16:45:36;101835.59;;;11.63;100.00
27980;BME280;15315;50.836;4.430;2023-01-31T16:55:36;101832.13;;;12.07;100.00
27980;BME280;15315;50.836;4.430;2023-01-31T17:05:42;101822.63;;;11.84;100.00
27980;BME280;15315;50.836;4.430;2023-01-31T17:15:43;101827.72;;;11.59;100.00
27980;BME280;15315;50.836;4.430;2023-01-31T17:25:44;101822.13;;;11.93;100.00
27980;BME280;15315;50.836;4.430;2023-01-31T17:35:45;101811.22;;;11.79;100.00
27980;BME280;15315;50.836;4.430;2023-01-31T17:45:51;101822.50;;;11.56;100.00
27980;BME280;15315;50.836;4.430;2023-01-31T17:55:51;101799.22;;;11.69;100.00
27980;BME280;15315;50.836;4.430;2023-01-31T18:05:52;101795.09;;;11.93;100.00
27980;BME280;15315;50.836;4.430;2023-01-31T18:16:01;101796.69;;;12.41;100.00
27980;BME280;15315;50.836;4.430;2023-01-31T18:26:03;101795.22;;;12.35;100.00
27980;BME280;15315;50.836;4.430;2023-01-31T18:36:05;101783.97;;;11.84;100.00
27980;BME280;15315;50.836;4.430;2023-01-31T18:46:06;101798.78;;;11.30;100.00
27980;BME280;15315;50.836;4.430;2023-01-31T18:56:16;101795.19;;;11.92;100.00
27980;BME280;15315;50.836;4.430;2023-01-31T19:06:20;101803.94;;;12.11;100.00
27980;BME280;15315;50.836;4.430;2023-01-31T19:16:23;101825.66;;;12.25;100.00
27980;BME280;15315;50.836;4.430;2023-01-31T19:26:24;101820.97;;;11.97;100.00
27980;BME280;15315;50.836;4.430;2023-01-31T19:36:27;101835.63;;;12.38;100.00
27980;BME280;15315;50.836;4.430;2023-01-31T19:46:32;101837.28;;;12.11;100.00
27980;BME280;15315;50.836;4.430;2023-01-31T19:56:33;101842.34;;;12.02;100.00
27980;BME280;15315;50.836;4.430;2023-01-31T20:06:33;101837.09;;;12.14;100.00
27980;BME280;15315;50.836;4.430;2023-01-31T20:16:34;101841.06;;;12.23;100.00
27980;BME280;15315;50.836;4.430;2023-01-31T20:26:35;101846.78;;;11.87;100.00
27980;BME280;15315;50.836;4.430;2023-01-31T20:36:35;101829.00;;;11.99;100.00
27980;BME280;15315;50.836;4.430;2023-01-31T20:46:36;101836.50;;;11.94;100.00
27980;BME280;15315;50.836;4.430;2023-01-31T20:56:37;101834.75;;;11.93;100.00
27980;BME280;15315;50.836;4.430;2023-01-31T21:06:37;101830.69;;;11.54;100.00
27980;BME280;15315;50.836;4.430;2023-01-31T21:16:37;101821.19;;;11.47;100.00
27980;BME280;15315;50.836;4.430;2023-01-31T21:26:38;101825.88;;;11.59;100.00
27980;BME280;15315;50.836;4.430;2023-01-31T21:36:38;101822.25;;;11.60;100.00
27980;BME280;15315;50.836;4.430;2023-01-31T21:46:38;101823.75;;;11.33;100.00
27980;BME280;15315;50.836;4.430;2023-01-31T21:56:39;101804.84;;;11.33;100.00
27980;BME280;15315;50.836;4.430;2023-01-31T22:06:40;101784.16;;;11.49;100.00
27980;BME280;15315;50.836;4.430;2023-01-31T22:16:41;101772.47;;;11.18;100.00
27980;BME280;15315;50.836;4.430;2023-01-31T22:26:43;101760.00;;;11.31;100.00
27980;BME280;15315;50.836;4.430;2023-01-31T22:36:43;101762.72;;;10.82;100.00
27980;BME280;15315;50.836;4.430;2023-01-31T22:46:43;101766.97;;;11.03;100.00
27980;BME280;15315;50.836;4.430;2023-01-31T22:56:44;101771.81;;;10.81;100.00
27980;BME280;15315;50.836;4.430;2023-01-31T23:06:44;101759.28;;;10.96;100.00
27980;BME280;15315;50.836;4.430;2023-01-31T23:16:45;101753.66;;;11.16;100.00
27980;BME280;15315;50.836;4.430;2023-01-31T23:27:03;101762.94;;;10.62;100.00
27980;BME280;15315;50.836;4.430;2023-01-31T23:37:04;101741.47;;;11.09;100.00
27980;BME280;15315;50.836;4.430;2023-01-31T23:47:04;101739.81;;;11.06;100.00
27980;BME280;15315;50.836;4.430;2023-01-31T23:57:04;101741.38;;;11.26;100.00
